Time;durP1;ratioP1;P1;durP2;ratioP2;P2;SDS_P1;SDS_P2;PMS_P1;PMS_P2;Temp;Humidity;BMP_temperature;BMP_pressure;BME280_temperature;BME280_humidity;BME280_pressure;Samples;Min_cycle;Max_cycle;Signal;HPM_P1;HPM_P2
2022/10/04 00:01:24;;;;;;;;;;;10.30;99.90;;;;;;5068448;28;19931;-69
2022/10/04 00:03:53;;;;;;;;;;;10.30;99.90;;;;;;5071154;28;20042;-70
2022/10/04 00:06:21;;;;;;;;;;;10.30;99.90;;;;;;5069666;28;19924;-69
2022/10/04 00:08:48;;;;;;;;;;;10.20;99.90;;;;;;5070916;28;19999;-69
2022/10/04 00:11:17;;;;;;;;;;;10.20;99.90;;;;;;5069524;28;19924;-69
2022/10/04 00:13:47;;;;;;;;;;;10.20;99.90;;;;;;5070469;28;19948;-69
2022/10/04 00:16:21;;;;;;;;;;;10.20;99.90;;;;;;5067627;28;19924;-69
2022/10/04 00:18:47;;;;;;;;;;;10.20;99.90;;;;;;5071604;28;20011;-69
2022/10/04 00:21:14;;;;;;;;;;;10.20;99.90;;;;;;5069319;28;20007;-69
2022/10/04 00:23:42;;;;;;;;;;;10.20;99.90;;;;;;5063156;28;19928;-69
2022/10/04 00:26:12;;;;;;;;;;;10.20;99.90;;;;;;5068925;28;19931;-69
2022/10/04 00:28:44;;;;;;;;;;;10.20;99.90;;;;;;5069461;28;19961;-69
2022/10/04 00:31:12;;;;;;;;;;;10.20;99.90;;;;;;5064150;28;20479;-69
2022/10/04 00:33:41;;;;;;;;;;;10.20;99.90;;;;;;5065194;28;19947;-69
2022/10/04 00:36:26;;;;;;;;;;;10.10;99.90;;;;;;5068872;28;19928;-69
2022/10/04 00:39:02;;;;;;;;;;;10.10;99.90;;;;;;5069542;28;20111;-70
2022/10/04 00:41:29;;;;;;;;;;;10.10;99.90;;;;;;5069598;28;19931;-69
2022/10/04 00:43:57;;;;;;;;;;;10.10;99.90;;;;;;5069429;28;19951;-69
2022/10/04 00:46:25;;;;;;;;;;;10.00;99.90;;;;;;5068757;28;19925;-70
2022/10/04 00:48:54;;;;;;;;;;;10.00;99.90;;;;;;5067991;28;19929;-69
2022/10/04 00:51:25;;;;;;;;;;;9.90;99.90;;;;;;5069526;28;20011;-70
2022/10/04 00:53:56;;;;;;;;;;;9.90;99.90;;;;;;5068305;28;20379;-69
2022/10/04 00:56:25;;;;;;;;;;;9.90;99.90;;;;;;5069225;28;19930;-69
2022/10/04 00:59:14;;;;;;;;;;;9.80;99.90;;;;;;5068342;28;19931;-69
2022/10/04 01:01:43;;;;;;;;;;;9.80;99.90;;;;;;5066313;28;19925;-69
2022/10/04 01:04:15;;;;;;;;;;;9.80;99.90;;;;;;5070054;28;19931;-69
2022/10/04 01:06:43;;;;;;;;;;;9.80;99.90;;;;;;5069884;28;19999;-69
2022/10/04 01:09:10;;;;;;;;;;;9.90;99.90;;;;;;5068848;28;19925;-69
2022/10/04 01:11:38;;;;;;;;;;;9.90;99.90;;;;;;5069175;28;19931;-69
2022/10/04 01:14:11;;;;;;;;;;;9.90;99.90;;;;;;5068649;28;20391;-69
2022/10/04 01:16:38;;;;;;;;;;;9.90;99.90;;;;;;5065502;28;20379;-69
2022/10/04 01:19:23;;;;;;;;;;;9.90;99.90;;;;;;5068598;28;19956;-69
2022/10/04 01:21:58;;;;;;;;;;;9.90;99.90;;;;;;5067468;28;20407;-70
2022/10/04 01:24:32;;;;;;;;;;;9.90;99.90;;;;;;5068134;28;19924;-70
2022/10/04 01:26:59;;;;;;;;;;;9.80;99.90;;;;;;5067125;28;20391;-70
2022/10/04 01:29:27;;;;;;;;;;;9.80;99.90;;;;;;5067472;28;20019;-68
2022/10/04 01:31:55;;;;;;;;;;;9.80;99.90;;;;;;5067923;28;19931;-70
2022/10/04 01:34:23;;;;;;;;;;;9.70;99.90;;;;;;5069877;28;19924;-71
2022/10/04 01:36:51;;;;;;;;;;;9.60;99.90;;;;;;5066909;28;19970;-70
2022/10/04 01:39:19;;;;;;;;;;;9.50;99.90;;;;;;5068565;28;19924;-70
2022/10/04 01:41:52;;;;;;;;;;;9.50;99.90;;;;;;5067739;28;20357;-71
2022/10/04 01:44:23;;;;;;;;;;;9.50;99.90;;;;;;5069037;28;19977;-70
2022/10/04 01:46:50;;;;;;;;;;;9.50;99.90;;;;;;5067448;28;19924;-70
2022/10/04 01:49:19;;;;;;;;;;;9.40;99.90;;;;;;5068667;28;20386;-70
2022/10/04 01:51:49;;;;;;;;;;;9.40;99.90;;;;;;5067954;28;19936;-70
2022/10/04 01:54:18;;;;;;;;;;;9.40;99.90;;;;;;5065734;28;19951;-70
2022/10/04 01:56:47;;;;;;;;;;;9.50;99.90;;;;;;5067747;28;19925;-70
2022/10/04 01:59:16;;;;;;;;;;;9.60;99.90;;;;;;5065894;28;20377;-70
2022/10/04 02:01:47;;;;;;;;;;;9.60;99.90;;;;;;5078718;28;19924;-70
2022/10/04 02:04:17;;;;;;;;;;;9.60;99.90;;;;;;5066787;28;19928;-70
2022/10/04 02:06:44;;;;;;;;;;;9.50;99.90;;;;;;5072028;28;19924;-70
2022/10/04 02:09:12;;;;;;;;;;;9.60;99.90;;;;;;5073064;28;20383;-70
2022/10/04 02:11:40;;;;;;;;;;;9.50;99.90;;;;;;5073953;28;19958;-70
2022/10/04 02:14:14;;;;;;;;;;;9.60;99.90;;;;;;5071492;28;19971;-70
2022/10/04 02:16:43;;;;;;;;;;;9.60;99.90;;;;;;5072688;28;19924;-70
2022/10/04 02:19:10;;;;;;;;;;;9.60;99.90;;;;;;5071974;28;19933;-69
2022/10/04 02:21:37;;;;;;;;;;;9.60;99.90;;;;;;5070724;28;20375;-70
2022/10/04 02:24:05;;;;;;;;;;;9.50;99.90;;;;;;5070704;28;20389;-70
2022/10/04 02:26:33;;;;;;;;;;;9.50;99.90;;;;;;5072831;28;19928;-70
2022/10/04 02:28:59;;;;;;;;;;;9.40;99.90;;;;;;5072619;28;19931;-69
2022/10/04 02:34:13;;;;;;;;;;;9.20;99.90;;;;;;5070707;28;20051;-70
2022/10/04 02:36:40;;;;;;;;;;;9.20;99.90;;;;;;5070689;28;19925;-70
2022/10/04 02:39:15;;;;;;;;;;;9.10;99.90;;;;;;5072039;28;19986;-70
2022/10/04 02:41:43;;;;;;;;;;;9.20;99.90;;;;;;5068986;28;19931;-69
2022/10/04 02:44:14;;;;;;;;;;;9.10;99.90;;;;;;5073098;28;19925;-69
2022/10/04 02:46:44;;;;;;;;;;;9.10;99.90;;;;;;5069272;28;19925;-69
2022/10/04 02:49:16;;;;;;;;;;;9.00;99.90;;;;;;5070088;28;19924;-70
2022/10/04 02:51:46;;;;;;;;;;;9.00;99.90;;;;;;5071551;28;20272;-70
2022/10/04 02:54:17;;;;;;;;;;;8.90;99.90;;;;;;5071943;28;19991;-69
2022/10/04 02:56:44;;;;;;;;;;;8.90;99.90;;;;;;5071426;28;20303;-70
2022/10/04 02:59:15;;;;;;;;;;;8.80;99.90;;;;;;5072681;28;19924;-70
2022/10/04 03:01:46;;;;;;;;;;;8.80;99.90;;;;;;5070445;28;19924;-70
2022/10/04 03:04:14;;;;;;;;;;;8.60;99.90;;;;;;5070055;28;19933;-70
2022/10/04 03:06:42;;;;;;;;;;;8.60;99.90;;;;;;5071054;28;19933;-69
2022/10/04 03:09:10;;;;;;;;;;;8.60;99.90;;;;;;5072852;28;20380;-69
2022/10/04 03:11:37;;;;;;;;;;;8.70;99.90;;;;;;5068183;28;19925;-70
2022/10/04 03:14:05;;;;;;;;;;;8.80;99.90;;;;;;5069190;28;20321;-69
2022/10/04 03:16:35;;;;;;;;;;;8.80;99.90;;;;;;5066707;28;19928;-70
2022/10/04 03:19:01;;;;;;;;;;;8.90;99.90;;;;;;5070119;28;19924;-70
2022/10/04 03:21:28;;;;;;;;;;;8.90;99.90;;;;;;5066242;28;19947;-70
2022/10/04 03:23:55;;;;;;;;;;;9.00;99.90;;;;;;5071845;28;20024;-70
2022/10/04 03:26:28;;;;;;;;;;;8.90;99.90;;;;;;5069294;28;20027;-70
2022/10/04 03:28:55;;;;;;;;;;;9.00;99.90;;;;;;5068923;28;19924;-70
2022/10/04 03:31:23;;;;;;;;;;;8.90;99.90;;;;;;5070532;28;20015;-70
2022/10/04 03:33:50;;;;;;;;;;;8.90;99.90;;;;;;5069354;28;20039;-70
2022/10/04 03:36:18;;;;;;;;;;;9.00;99.90;;;;;;5058559;28;20296;-70
2022/10/04 03:38:46;;;;;;;;;;;9.00;99.90;;;;;;5066992;28;19924;-70
2022/10/04 03:41:15;;;;;;;;;;;9.00;99.90;;;;;;5070475;28;19966;-70
2022/10/04 03:43:45;;;;;;;;;;;9.00;99.90;;;;;;5070143;28;19932;-70
2022/10/04 03:46:13;;;;;;;;;;;9.10;99.90;;;;;;5071219;28;19924;-69
2022/10/04 03:48:43;;;;;;;;;;;9.10;99.90;;;;;;5071644;28;19924;-70
2022/10/04 03:51:13;;;;;;;;;;;9.10;99.90;;;;;;5064199;28;19924;-70
2022/10/04 03:53:42;;;;;;;;;;;9.10;99.90;;;;;;5064641;28;19924;-70
2022/10/04 03:56:11;;;;;;;;;;;9.10;99.90;;;;;;5070851;28;19924;-70
2022/10/04 03:58:37;;;;;;;;;;;9.10;99.90;;;;;;5071187;28;19931;-70
2022/10/04 04:01:13;;;;;;;;;;;9.10;99.90;;;;;;5068192;28;19924;-70
2022/10/04 04:03:48;;;;;;;;;;;9.10;99.90;;;;;;5069128;28;20577;-70
2022/10/04 04:06:16;;;;;;;;;;;9.00;99.90;;;;;;5071485;28;19924;-69
2022/10/04 04:08:45;;;;;;;;;;;8.90;99.90;;;;;;5064515;28;19924;-70
2022/10/04 04:11:17;;;;;;;;;;;8.80;99.90;;;;;;5071947;28;19928;-68
2022/10/04 04:13:47;;;;;;;;;;;8.70;99.90;;;;;;5064992;28;19933;-67
2022/10/04 04:16:16;;;;;;;;;;;8.80;99.90;;;;;;5067224;28;19963;-68
2022/10/04 04:18:43;;;;;;;;;;;8.80;99.90;;;;;;5065229;28;19936;-67
2022/10/04 04:21:14;;;;;;;;;;;8.80;99.90;;;;;;5071636;28;19946;-67
2022/10/04 04:23:43;;;;;;;;;;;8.80;99.90;;;;;;5059838;28;19931;-67
2022/10/04 04:26:15;;;;;;;;;;;8.80;99.90;;;;;;5069731;28;19931;-67
2022/10/04 04:28:47;;;;;;;;;;;8.80;99.90;;;;;;5067783;28;19932;-67
2022/10/04 04:31:19;;;;;;;;;;;8.80;99.90;;;;;;5065495;28;19933;-67
2022/10/04 04:33:49;;;;;;;;;;;8.60;99.90;;;;;;5066261;28;19928;-68
2022/10/04 04:36:16;;;;;;;;;;;8.50;99.90;;;;;;5067354;28;19931;-68
2022/10/04 04:41:25;;;;;;;;;;;8.60;99.90;;;;;;5069083;28;19931;-68
2022/10/04 04:43:51;;;;;;;;;;;8.60;99.90;;;;;;5069505;28;19924;-69
2022/10/04 04:46:20;;;;;;;;;;;8.80;99.90;;;;;;5071656;28;19924;-69
2022/10/04 04:48:48;;;;;;;;;;;8.80;99.90;;;;;;5069135;28;20330;-69
2022/10/04 04:51:19;;;;;;;;;;;8.90;99.90;;;;;;5070887;28;19932;-69
2022/10/04 04:53:46;;;;;;;;;;;8.90;99.90;;;;;;5068851;28;20448;-68
2022/10/04 04:56:18;;;;;;;;;;;8.90;99.90;;;;;;5055043;28;19929;-69
2022/10/04 04:58:46;;;;;;;;;;;8.90;99.90;;;;;;5065191;28;19925;-69
2022/10/04 05:01:18;;;;;;;;;;;9.00;99.90;;;;;;5070905;28;20268;-69
2022/10/04 05:03:59;;;;;;;;;;;9.00;99.90;;;;;;5065856;28;19925;-68
2022/10/04 05:06:26;;;;;;;;;;;9.00;99.90;;;;;;5068775;28;19940;-68
2022/10/04 05:08:53;;;;;;;;;;;9.00;99.90;;;;;;5069588;28;19951;-69
2022/10/04 05:11:20;;;;;;;;;;;9.00;99.90;;;;;;5069045;28;19975;-69
2022/10/04 05:13:49;;;;;;;;;;;9.00;99.90;;;;;;5066814;28;19925;-69
2022/10/04 05:16:18;;;;;;;;;;;9.00;99.90;;;;;;5070968;28;20004;-69
2022/10/04 05:18:47;;;;;;;;;;;8.90;99.90;;;;;;5069059;28;19924;-69
2022/10/04 05:21:17;;;;;;;;;;;8.90;99.90;;;;;;5070551;28;19982;-67
2022/10/04 05:23:44;;;;;;;;;;;8.80;99.90;;;;;;5066191;28;20016;-69
2022/10/04 05:26:12;;;;;;;;;;;8.70;99.90;;;;;;5070472;28;19925;-69
2022/10/04 05:28:39;;;;;;;;;;;8.60;99.90;;;;;;5069087;28;19968;-69
2022/10/04 05:31:23;;;;;;;;;;;8.50;99.90;;;;;;5070661;28;19925;-69
2022/10/04 05:33:54;;;;;;;;;;;8.50;99.90;;;;;;5065183;28;20372;-69
2022/10/04 05:36:29;;;;;;;;;;;8.40;99.90;;;;;;5069442;28;20212;-69
2022/10/04 05:39:03;;;;;;;;;;;8.30;99.90;;;;;;5069447;28;19931;-68
2022/10/04 05:41:32;;;;;;;;;;;8.20;99.90;;;;;;5066412;28;20412;-69
2022/10/04 05:43:58;;;;;;;;;;;8.30;99.90;;;;;;5070393;28;19924;-69
2022/10/04 05:46:26;;;;;;;;;;;8.20;99.90;;;;;;5061060;28;20004;-68
2022/10/04 05:48:55;;;;;;;;;;;8.30;99.90;;;;;;5067775;28;19935;-69
2022/10/04 05:51:23;;;;;;;;;;;8.30;99.90;;;;;;5069451;28;20298;-69
2022/10/04 05:53:50;;;;;;;;;;;8.30;99.90;;;;;;5070845;28;20332;-71
2022/10/04 05:56:40;;;;;;;;;;;8.30;99.90;;;;;;5071183;28;19924;-69
2022/10/04 05:59:13;;;;;;;;;;;8.30;99.90;;;;;;5047199;28;20015;-70
2022/10/04 06:01:42;;;;;;;;;;;8.20;99.90;;;;;;5067469;28;19930;-70
2022/10/04 06:04:16;;;;;;;;;;;8.10;99.90;;;;;;5065547;28;19928;-69
2022/10/04 06:06:48;;;;;;;;;;;8.20;99.90;;;;;;5060001;28;19925;-69
2022/10/04 06:09:19;;;;;;;;;;;8.20;99.90;;;;;;5067755;28;20111;-69
2022/10/04 06:11:54;;;;;;;;;;;8.20;99.90;;;;;;5072440;28;19932;-69
2022/10/04 06:14:30;;;;;;;;;;;8.30;99.90;;;;;;5067512;28;19999;-70
2022/10/04 06:17:12;;;;;;;;;;;8.40;99.90;;;;;;5070600;28;19931;-69
2022/10/04 06:20:06;;;;;;;;;;;8.30;99.90;;;;;;5059720;28;19929;-69
2022/10/04 06:22:33;;;;;;;;;;;8.30;99.90;;;;;;5070383;28;20290;-69
2022/10/04 06:25:01;;;;;;;;;;;8.40;99.90;;;;;;5063712;28;19931;-70
2022/10/04 06:27:30;;;;;;;;;;;8.40;99.90;;;;;;5071679;28;20272;-70
2022/10/04 06:29:58;;;;;;;;;;;8.50;99.90;;;;;;5069804;28;19924;-68
2022/10/04 06:32:38;;;;;;;;;;;8.50;99.90;;;;;;5071312;28;19925;-69
2022/10/04 06:35:20;;;;;;;;;;;8.50;99.90;;;;;;5068531;28;19925;-69
2022/10/04 06:38:21;;;;;;;;;;;8.50;99.90;;;;;;5062852;28;20004;-71
2022/10/04 06:40:55;;;;;;;;;;;8.50;99.90;;;;;;5036719;28;20008;-69
2022/10/04 06:43:24;;;;;;;;;;;8.60;99.90;;;;;;5023144;28;19996;-69
2022/10/04 06:46:02;;;;;;;;;;;8.60;99.90;;;;;;5049391;28;19930;-69
2022/10/04 06:48:36;;;;;;;;;;;8.70;99.90;;;;;;5062227;28;19924;-70
2022/10/04 06:51:10;;;;;;;;;;;8.70;99.90;;;;;;5060218;28;19931;-70
2022/10/04 06:53:45;;;;;;;;;;;8.80;99.90;;;;;;5070729;28;19931;-70
2022/10/04 06:56:33;;;;;;;;;;;8.80;99.90;;;;;;5069572;28;20364;-69
2022/10/04 06:59:17;;;;;;;;;;;8.90;99.90;;;;;;5065538;28;19924;-69
2022/10/04 07:01:48;;;;;;;;;;;9.00;99.90;;;;;;5065401;28;19928;-70
2022/10/04 07:04:21;;;;;;;;;;;9.00;99.90;;;;;;5065492;28;19967;-69
2022/10/04 07:06:51;;;;;;;;;;;9.10;99.90;;;;;;5069597;28;19924;-69
2022/10/04 07:09:21;;;;;;;;;;;9.20;99.90;;;;;;5065098;28;19925;-70
2022/10/04 07:11:50;;;;;;;;;;;9.30;99.90;;;;;;5070026;28;19931;-70
2022/10/04 07:14:19;;;;;;;;;;;9.40;99.90;;;;;;5070994;28;20023;-68
2022/10/04 07:16:47;;;;;;;;;;;9.50;99.90;;;;;;5070948;28;20007;-69
2022/10/04 07:19:25;;;;;;;;;;;9.60;99.90;;;;;;5068506;28;19928;-69
2022/10/04 07:21:58;;;;;;;;;;;9.60;99.90;;;;;;5064633;28;20395;-69
2022/10/04 07:24:26;;;;;;;;;;;9.70;99.90;;;;;;5061839;28;20015;-69
2022/10/04 07:26:54;;;;;;;;;;;9.80;99.90;;;;;;5068554;28;19929;-70
2022/10/04 07:29:23;;;;;;;;;;;9.90;99.90;;;;;;5069604;28;19932;-70
2022/10/04 07:31:52;;;;;;;;;;;10.00;99.90;;;;;;5069362;28;19979;-69
2022/10/04 07:34:22;;;;;;;;;;;10.10;99.90;;;;;;5071104;28;19925;-69
2022/10/04 07:36:50;;;;;;;;;;;10.20;99.90;;;;;;5065759;28;19925;-70
2022/10/04 07:39:20;;;;;;;;;;;11.50;99.90;;;;;;5072621;28;20318;-69
2022/10/04 07:41:50;;;;;;;;;;;13.70;99.90;;;;;;5069208;28;19928;-69
2022/10/04 07:44:20;;;;;;;;;;;15.70;99.90;;;;;;5068865;28;19925;-69
2022/10/04 07:46:51;;;;;;;;;;;17.00;99.90;;;;;;5068863;28;19924;-69
2022/10/04 07:49:19;;;;;;;;;;;17.40;99.90;;;;;;5070762;28;19950;-69
2022/10/04 07:51:55;;;;;;;;;;;18.20;99.90;;;;;;5067599;28;19932;-69
2022/10/04 07:54:27;;;;;;;;;;;18.30;99.90;;;;;;5067792;28;20035;-68
2022/10/04 07:56:56;;;;;;;;;;;19.00;96.90;;;;;;5068833;28;19935;-67
2022/10/04 07:59:31;;;;;;;;;;;18.50;96.00;;;;;;5067845;28;19931;-67
2022/10/04 08:02:05;;;;;;;;;;;19.10;94.20;;;;;;5065319;28;20378;-68
2022/10/04 08:04:41;;;;;;;;;;;19.00;92.50;;;;;;5058304;28;19931;-69
2022/10/04 08:07:14;;;;;;;;;;;19.10;93.20;;;;;;5065125;28;20030;-69
2022/10/04 08:09:47;;;;;;;;;;;19.80;91.90;;;;;;5064731;28;19959;-69
2022/10/04 08:12:20;;;;;;;;;;;19.70;87.00;;;;;;5055916;28;20294;-69
2022/10/04 08:14:52;;;;;;;;;;;18.30;91.00;;;;;;5064426;28;19935;-69
2022/10/04 08:17:23;;;;;;;;;;;17.50;93.90;;;;;;5065167;28;19946;-69
2022/10/04 08:19:54;;;;;;;;;;;16.90;97.10;;;;;;5060107;28;20056;-69
2022/10/04 08:22:26;;;;;;;;;;;17.00;97.70;;;;;;5059114;28;19929;-70
2022/10/04 08:25:00;;;;;;;;;;;16.80;99.90;;;;;;5062069;28;19977;-70
2022/10/04 08:27:34;;;;;;;;;;;16.80;99.20;;;;;;5063375;28;20253;-70
2022/10/04 08:30:03;;;;;;;;;;;16.90;99.90;;;;;;5061287;28;19931;-69
2022/10/04 08:32:32;;;;;;;;;;;17.70;99.10;;;;;;5058829;28;20008;-69
2022/10/04 08:35:20;;;;;;;;;;;19.20;96.60;;;;;;5056872;28;20379;-65
2022/10/04 08:37:55;;;;;;;;;;;20.70;91.60;;;;;;5014667;28;19951;-65
2022/10/04 08:40:43;;;;;;;;;;;20.90;87.50;;;;;;5059239;28;19958;-67
2022/10/04 08:43:28;;;;;;;;;;;20.50;85.90;;;;;;5059455;28;19955;-66
2022/10/04 08:46:13;;;;;;;;;;;20.40;86.00;;;;;;5062172;28;20008;-67
2022/10/04 08:48:58;;;;;;;;;;;19.70;87.90;;;;;;5058531;28;19932;-68
2022/10/04 08:51:43;;;;;;;;;;;19.90;87.90;;;;;;5062857;28;19932;-69
2022/10/04 08:54:37;;;;;;;;;;;19.70;89.20;;;;;;5061036;28;19925;-69
2022/10/04 08:57:21;;;;;;;;;;;19.50;88.70;;;;;;5057416;28;20494;-68
2022/10/04 09:00:06;;;;;;;;;;;19.20;90.20;;;;;;5058716;28;20043;-69
2022/10/04 09:02:50;;;;;;;;;;;18.60;90.70;;;;;;5061075;28;20010;-70
2022/10/04 09:05:36;;;;;;;;;;;18.70;91.50;;;;;;5060338;28;22167;-69
2022/10/04 09:08:10;;;;;;;;;;;18.70;91.80;;;;;;5064320;28;19928;-68
2022/10/04 09:10:49;;;;;;;;;;;18.90;91.10;;;;;;5062899;28;19924;-67
2022/10/04 09:13:33;;;;;;;;;;;18.80;91.50;;;;;;5066930;28;19932;-67
2022/10/04 09:16:07;;;;;;;;;;;19.00;92.00;;;;;;5064380;28;19924;-69
2022/10/04 09:18:52;;;;;;;;;;;18.90;91.20;;;;;;5065126;28;19925;-67
2022/10/04 09:21:26;;;;;;;;;;;19.10;92.10;;;;;;5065762;28;19954;-68
2022/10/04 09:24:03;;;;;;;;;;;20.00;91.20;;;;;;5069023;28;19925;-67
2022/10/04 09:26:36;;;;;;;;;;;20.40;90.00;;;;;;5063359;28;20019;-68
2022/10/04 09:29:13;;;;;;;;;;;19.90;89.00;;;;;;5073252;28;19924;-68
2022/10/04 09:32:03;;;;;;;;;;;18.30;92.30;;;;;;5072322;28;19971;-68
2022/10/04 09:34:40;;;;;;;;;;;17.30;96.30;;;;;;5063600;28;19925;-67
2022/10/04 09:37:22;;;;;;;;;;;16.80;99.90;;;;;;5069520;28;20375;-68
2022/10/04 09:40:26;;;;;;;;;;;16.30;99.90;;;;;;5068152;28;20373;-69
2022/10/04 09:43:03;;;;;;;;;;;15.90;99.90;;;;;;5072348;28;19930;-68
2022/10/04 09:46:00;;;;;;;;;;;15.70;99.90;;;;;;5064572;28;19928;-67
2022/10/04 09:48:32;;;;;;;;;;;15.50;99.90;;;;;;4972114;28;19973;-69
2022/10/04 09:51:10;;;;;;;;;;;15.60;99.90;;;;;;5043616;28;19924;-67
2022/10/04 09:53:51;;;;;;;;;;;15.60;99.90;;;;;;5068621;28;20381;-67
2022/10/04 09:56:30;;;;;;;;;;;15.70;99.90;;;;;;5070983;28;19924;-68
2022/10/04 09:59:17;;;;;;;;;;;15.50;99.90;;;;;;5070028;28;19925;-68
2022/10/04 10:02:03;;;;;;;;;;;15.60;99.90;;;;;;5068433;28;19931;-67
2022/10/04 10:04:41;;;;;;;;;;;15.70;99.90;;;;;;5069714;28;20010;-67
2022/10/04 10:07:24;;;;;;;;;;;15.90;99.90;;;;;;5070414;28;19926;-67
2022/10/04 10:15:45;;;;;;;;;;;16.10;99.90;;;;;;5075208;28;19931;-68
2022/10/04 10:18:17;;;;;;;;;;;16.20;99.90;;;;;;5065090;28;19975;-68
2022/10/04 10:20:55;;;;;;;;;;;16.30;99.90;;;;;;5070196;28;19925;-71
2022/10/04 10:23:28;;;;;;;;;;;16.40;99.90;;;;;;5070654;28;19939;-67
2022/10/04 10:26:03;;;;;;;;;;;16.40;99.90;;;;;;5065029;28;19986;-66
2022/10/04 10:28:44;;;;;;;;;;;16.60;99.90;;;;;;5060658;28;20387;-67
2022/10/04 10:31:21;;;;;;;;;;;16.80;99.90;;;;;;5043572;28;20007;-68
2022/10/04 10:34:06;;;;;;;;;;;16.90;99.90;;;;;;5068301;28;19951;-66
2022/10/04 10:36:43;;;;;;;;;;;16.90;99.90;;;;;;5058952;28;20011;-68
2022/10/04 10:39:22;;;;;;;;;;;16.60;99.90;;;;;;5064627;28;20343;-67
2022/10/04 10:41:56;;;;;;;;;;;16.40;99.90;;;;;;5067450;28;19928;-68
2022/10/04 10:44:32;;;;;;;;;;;16.20;99.90;;;;;;5059856;28;19976;-68
2022/10/04 10:47:04;;;;;;;;;;;16.20;99.90;;;;;;5064296;28;20435;-68
2022/10/04 10:49:39;;;;;;;;;;;16.20;99.90;;;;;;5065376;28;19925;-67
2022/10/04 10:52:21;;;;;;;;;;;16.30;99.90;;;;;;5067190;28;19932;-67
2022/10/04 10:54:56;;;;;;;;;;;16.40;99.90;;;;;;5054640;28;19925;-67
2022/10/04 10:57:33;;;;;;;;;;;16.70;99.90;;;;;;5068495;28;19929;-67
2022/10/04 11:00:12;;;;;;;;;;;16.90;99.90;;;;;;5071851;28;22231;-67
2022/10/04 11:02:54;;;;;;;;;;;17.00;99.90;;;;;;5066762;28;19978;-66
2022/10/04 11:05:38;;;;;;;;;;;17.10;99.90;;;;;;5063732;28;19932;-67
2022/10/04 11:08:14;;;;;;;;;;;17.00;99.90;;;;;;5047784;28;19924;-68
2022/10/04 11:10:58;;;;;;;;;;;17.20;99.90;;;;;;5061955;28;19924;-68
2022/10/04 11:13:33;;;;;;;;;;;17.30;99.90;;;;;;5062824;28;19932;-67
2022/10/04 11:16:20;;;;;;;;;;;17.60;99.90;;;;;;5061429;28;19964;-67
2022/10/04 11:19:06;;;;;;;;;;;17.70;99.90;;;;;;5064722;28;19933;-67
2022/10/04 11:22:06;;;;;;;;;;;17.60;99.90;;;;;;5064944;28;19932;-67
2022/10/04 11:24:45;;;;;;;;;;;17.50;99.90;;;;;;5062097;28;20284;-68
2022/10/04 11:27:17;;;;;;;;;;;17.60;99.90;;;;;;5061854;28;19933;-65
2022/10/04 11:29:58;;;;;;;;;;;17.70;99.90;;;;;;5058133;28;19925;-66
2022/10/04 11:32:40;;;;;;;;;;;17.70;99.90;;;;;;5063567;28;19932;-66
2022/10/04 11:35:33;;;;;;;;;;;17.90;99.90;;;;;;5043356;28;19931;-65
2022/10/04 11:38:05;;;;;;;;;;;17.70;99.90;;;;;;5038133;28;20368;-66
2022/10/04 11:40:39;;;;;;;;;;;17.60;99.90;;;;;;5060772;28;20311;-66
2022/10/04 11:43:15;;;;;;;;;;;17.50;99.90;;;;;;5067370;28;20038;-67
2022/10/04 11:45:54;;;;;;;;;;;17.50;99.90;;;;;;5066862;28;19928;-68
2022/10/04 11:48:26;;;;;;;;;;;17.60;99.90;;;;;;5061100;28;19924;-66
2022/10/04 11:51:10;;;;;;;;;;;17.90;99.90;;;;;;5068535;28;19924;-66
2022/10/04 11:54:06;;;;;;;;;;;18.00;99.90;;;;;;5065689;28;19924;-65
2022/10/04 11:56:40;;;;;;;;;;;18.10;99.90;;;;;;5068692;28;19924;-67
2022/10/04 11:59:16;;;;;;;;;;;18.00;99.90;;;;;;5069111;28;19934;-66
2022/10/04 12:02:00;;;;;;;;;;;18.00;99.90;;;;;;5061658;28;19925;-68
2022/10/04 12:04:54;;;;;;;;;;;17.90;99.90;;;;;;5054947;28;20674;-69
2022/10/04 12:07:27;;;;;;;;;;;17.90;99.90;;;;;;5056602;28;19925;-68
2022/10/04 12:09:58;;;;;;;;;;;17.80;99.90;;;;;;5062194;28;19932;-66
2022/10/04 12:12:37;;;;;;;;;;;17.90;99.90;;;;;;5067181;28;19924;-67
2022/10/04 12:15:17;;;;;;;;;;;17.90;99.90;;;;;;5057540;28;19925;-66
2022/10/04 12:17:53;;;;;;;;;;;18.00;99.90;;;;;;5062784;28;19933;-67
2022/10/04 12:20:31;;;;;;;;;;;18.00;99.90;;;;;;5064418;28;20298;-67
2022/10/04 12:23:05;;;;;;;;;;;18.00;99.90;;;;;;5061273;28;20367;-68
2022/10/04 12:25:41;;;;;;;;;;;18.10;99.90;;;;;;5066306;28;19933;-68
2022/10/04 12:28:22;;;;;;;;;;;18.30;99.90;;;;;;5062698;28;19924;-68
2022/10/04 12:31:00;;;;;;;;;;;18.40;99.90;;;;;;5065734;28;19960;-68
2022/10/04 12:33:33;;;;;;;;;;;18.30;99.90;;;;;;5062983;28;19929;-67
2022/10/04 12:36:07;;;;;;;;;;;18.20;99.90;;;;;;5057965;28;19939;-67
2022/10/04 12:38:45;;;;;;;;;;;18.20;99.90;;;;;;5058261;28;19924;-65
2022/10/04 12:41:19;;;;;;;;;;;18.40;99.90;;;;;;5063907;28;20481;-67
2022/10/04 12:43:51;;;;;;;;;;;18.50;99.90;;;;;;5063454;28;20023;-67
2022/10/04 12:46:26;;;;;;;;;;;18.40;99.90;;;;;;5058610;28;19932;-66
2022/10/04 12:49:02;;;;;;;;;;;18.40;99.90;;;;;;5064774;28;19925;-66
2022/10/04 12:51:37;;;;;;;;;;;18.40;99.90;;;;;;5060316;28;19924;-67
2022/10/04 12:54:11;;;;;;;;;;;18.50;99.90;;;;;;5058907;28;19933;-67
2022/10/04 12:56:45;;;;;;;;;;;18.60;99.90;;;;;;5058412;28;19936;-67
2022/10/04 12:59:32;;;;;;;;;;;18.70;99.90;;;;;;5065378;28;19924;-66
2022/10/04 13:02:05;;;;;;;;;;;18.80;99.90;;;;;;5060866;28;19925;-65
2022/10/04 13:04:34;;;;;;;;;;;18.70;99.90;;;;;;5058319;28;19931;-65
2022/10/04 13:07:13;;;;;;;;;;;18.70;99.90;;;;;;5060050;28;20415;-66
2022/10/04 13:09:43;;;;;;;;;;;18.80;99.90;;;;;;5062075;28;20263;-64
2022/10/04 13:12:18;;;;;;;;;;;18.90;99.90;;;;;;5056129;28;19943;-67
2022/10/04 13:14:58;;;;;;;;;;;19.20;99.90;;;;;;5062809;28;20046;-66
2022/10/04 13:17:32;;;;;;;;;;;19.20;99.90;;;;;;5061744;28;19932;-68
2022/10/04 13:20:03;;;;;;;;;;;19.20;99.90;;;;;;5061336;28;19935;-68
2022/10/04 13:22:36;;;;;;;;;;;19.30;99.90;;;;;;5066176;28;19960;-67
2022/10/04 13:25:13;;;;;;;;;;;19.30;99.90;;;;;;5066887;28;20018;-67
